Time;durP1;ratioP1;P1;durP2;ratioP2;P2;SDS_P1;SDS_P2;PMS_P1;PMS_P2;Temp;Humidity;BMP_temperature;BMP_pressure;BME280_temperature;BME280_humidity;BME280_pressure;Samples;Min_cycle;Max_cycle;Signal;HPM_P1;HPM_P2
2021/08/27 00:02:52;;;;;;;2.70;2.17;;;;;;;14.97;66.72;101165.09;6182207;28;20258;-47
2021/08/27 00:06:13;;;;;;;7.70;4.23;;;;;;;14.83;67.19;101164.50;6173098;28;20222;-51
2021/08/27 00:09:35;;;;;;;4.93;2.43;;;;;;;14.81;67.30;101164.56;6183115;28;20515;-51
2021/08/27 00:12:57;;;;;;;2.23;2.03;;;;;;;14.73;67.02;101156.84;6181913;28;20229;-49
2021/08/27 00:16:18;;;;;;;3.13;1.53;;;;;;;14.62;67.97;101157.94;6198191;28;20614;-48
2021/08/27 00:19:39;;;;;;;5.37;3.00;;;;;;;14.76;67.26;101156.78;6199648;28;20732;-49
2021/08/27 00:23:00;;;;;;;3.20;2.70;;;;;;;14.73;67.34;101161.22;6176974;28;20242;-49
2021/08/27 00:26:20;;;;;;;4.77;2.67;;;;;;;14.63;67.78;101160.53;6187853;28;20313;-49
2021/08/27 00:29:43;;;;;;;5.40;2.97;;;;;;;14.74;67.33;101158.56;6200050;28;20229;-49
2021/08/27 00:33:04;;;;;;;2.20;1.70;;;;;;;14.56;67.78;101164.16;6187346;28;20231;-53
2021/08/27 00:36:25;;;;;;;3.40;2.30;;;;;;;14.57;67.62;101153.66;6191317;28;20229;-50
2021/08/27 00:39:46;;;;;;;5.83;2.17;;;;;;;14.35;68.78;101150.56;6191508;28;20229;-45
2021/08/27 00:43:07;;;;;;;2.67;2.03;;;;;;;14.38;68.68;101161.00;6192072;28;20225;-52
2021/08/27 00:46:30;;;;;;;3.17;2.57;;;;;;;14.47;68.15;101149.47;6186337;28;20831;-49
2021/08/27 00:49:51;;;;;;;2.33;2.00;;;;;;;14.23;68.80;101150.81;6183259;28;20230;-49
2021/08/27 00:53:12;;;;;;;3.37;2.13;;;;;;;14.36;68.60;101146.19;6192379;28;20320;-47
2021/08/27 00:56:33;;;;;;;4.93;2.50;;;;;;;14.50;68.00;101145.91;6165927;28;20238;-51
2021/08/27 00:59:54;;;;;;;4.10;1.90;;;;;;;14.32;68.26;101142.75;6176952;28;20242;-47
2021/08/27 01:03:18;;;;;;;3.43;2.13;;;;;;;14.36;68.41;101136.59;6193119;28;20241;-51
2021/08/27 01:06:44;;;;;;;2.63;1.90;;;;;;;14.39;68.42;101138.28;6183375;28;20651;-51
2021/08/27 01:10:12;;;;;;;3.77;2.53;;;;;;;14.29;68.60;101129.75;6182002;28;20246;-50
2021/08/27 01:13:38;;;;;;;6.43;2.80;;;;;;;14.09;69.30;101129.25;6196504;28;20344;-50
2021/08/27 01:17:03;;;;;;;2.87;1.90;;;;;;;13.92;69.61;101127.81;6202363;28;20234;-48
2021/08/27 01:20:41;;;;;;;3.27;2.03;;;;;;;14.28;68.56;101122.75;6195403;28;20623;-51
2021/08/27 01:24:05;;;;;;;4.07;2.30;;;;;;;14.42;67.85;101124.25;6186003;28;20237;-49
2021/08/27 01:27:27;;;;;;;3.17;2.67;;;;;;;14.26;68.13;101124.56;6208124;28;20233;-49
2021/08/27 01:31:00;;;;;;;4.13;2.73;;;;;;;14.25;68.09;101124.56;6184677;28;20229;-53
2021/08/27 01:34:40;;;;;;;3.67;2.13;;;;;;;14.26;68.14;101128.94;6189785;28;20540;-49
2021/08/27 01:38:05;;;;;;;6.40;3.10;;;;;;;14.24;68.16;101126.34;6169806;28;20230;-51
2021/08/27 01:41:29;;;;;;;5.10;2.13;;;;;;;14.25;67.98;101122.84;6197257;28;20316;-50
2021/08/27 01:44:52;;;;;;;2.47;1.80;;;;;;;14.20;68.38;101124.69;6195689;28;20234;-49
2021/08/27 01:48:14;;;;;;;6.83;3.43;;;;;;;14.32;67.74;101129.66;6188439;28;20241;-52
2021/08/27 01:51:38;;;;;;;5.23;2.30;;;;;;;14.20;68.21;101123.81;6189891;28;20603;-46
2021/08/27 01:54:59;;;;;;;6.53;4.40;;;;;;;14.07;68.52;101118.78;6206698;28;20328;-49
2021/08/27 01:58:21;;;;;;;3.93;2.73;;;;;;;14.25;67.71;101121.97;6192146;28;20621;-49
2021/08/27 02:01:42;;;;;;;3.33;2.93;;;;;;;14.28;67.80;101112.28;6196150;28;20242;-48
2021/08/27 02:05:07;;;;;;;3.40;2.27;;;;;;;14.25;67.69;101108.84;6201191;28;20241;-48
2021/08/27 02:08:31;;;;;;;3.23;2.33;;;;;;;14.30;67.38;101120.13;6192335;28;20234;-50
2021/08/27 02:11:53;;;;;;;5.13;2.07;;;;;;;14.27;67.19;101123.66;6202629;28;20306;-49
2021/08/27 02:15:13;;;;;;;2.77;1.90;;;;;;;14.07;68.05;101121.41;6195630;28;20229;-51
2021/08/27 02:18:35;;;;;;;8.23;2.40;;;;;;;14.24;67.54;101126.34;6192375;28;20728;-49
2021/08/27 02:21:57;;;;;;;3.17;2.23;;;;;;;14.32;67.10;101121.81;6185516;28;20238;-52
2021/08/27 02:25:22;;;;;;;3.20;1.90;;;;;;;14.24;67.58;101115.84;6202409;28;20253;-50
2021/08/27 02:28:45;;;;;;;5.13;2.50;;;;;;;14.27;67.74;101121.06;6203199;28;20237;-52
2021/08/27 02:32:10;;;;;;;5.03;2.10;;;;;;;14.18;67.92;101111.59;6188248;28;20241;-48
2021/08/27 02:35:32;;;;;;;3.23;2.30;;;;;;;14.08;68.31;101106.59;6178081;28;20329;-53
2021/08/27 02:38:56;;;;;;;6.83;2.10;;;;;;;14.24;67.55;101105.38;6192415;28;20245;-49
2021/08/27 02:42:20;;;;;;;3.83;1.87;;;;;;;14.49;66.74;101105.75;6192082;28;20618;-53
2021/08/27 02:45:41;;;;;;;4.97;2.93;;;;;;;14.53;66.48;101106.56;6192269;28;20230;-49
2021/08/27 02:49:02;;;;;;;3.90;1.97;;;;;;;14.42;67.01;101104.16;6199008;28;20221;-50
2021/08/27 02:52:29;;;;;;;2.70;2.50;;;;;;;14.42;67.13;101098.91;6185869;28;20234;-48
2021/08/27 02:55:56;;;;;;;1.90;1.67;;;;;;;14.40;67.06;101100.69;6186518;28;20233;-47
2021/08/27 02:59:21;;;;;;;3.70;2.10;;;;;;;14.46;66.87;101104.94;6195161;28;20222;-53
2021/08/27 03:02:43;;;;;;;4.20;2.43;;;;;;;14.60;66.44;101102.94;6206192;28;20237;-51
2021/08/27 03:06:11;;;;;;;4.93;3.43;;;;;;;14.66;66.23;101097.56;6189317;28;20229;-47
2021/08/27 03:09:36;;;;;;;3.80;1.63;;;;;;;14.45;67.02;101092.75;6193590;28;20334;-49
2021/08/27 03:13:00;;;;;;;3.53;2.07;;;;;;;14.44;66.93;101099.72;6201570;28;20237;-52
2021/08/27 03:16:25;;;;;;;5.00;2.20;;;;;;;14.48;67.10;101087.44;6196175;28;20222;-48
2021/08/27 03:19:52;;;;;;;3.07;2.10;;;;;;;14.49;66.85;101089.19;6188344;28;20234;-52
2021/08/27 03:23:15;;;;;;;5.67;2.40;;;;;;;14.45;67.37;101088.38;6169456;28;20216;-48
2021/08/27 03:26:36;;;;;;;3.70;1.90;;;;;;;14.46;67.23;101081.38;6175187;28;20669;-54
2021/08/27 03:30:01;;;;;;;3.77;2.07;;;;;;;14.44;67.34;101076.16;6184465;28;20242;-49
2021/08/27 03:33:25;;;;;;;3.03;2.13;;;;;;;14.50;67.15;101073.44;6207634;28;20307;-48
2021/08/27 03:36:47;;;;;;;5.23;2.60;;;;;;;14.55;67.10;101068.94;6189550;28;20611;-49
2021/08/27 03:40:09;;;;;;;3.97;2.13;;;;;;;14.65;66.82;101061.75;6197953;28;20236;-54
2021/08/27 03:43:32;;;;;;;5.97;2.50;;;;;;;14.71;66.71;101055.53;6207002;28;20221;-52
2021/08/27 03:46:53;;;;;;;10.17;2.80;;;;;;;14.41;67.87;101054.41;6207252;28;20237;-54
2021/08/27 03:50:16;;;;;;;2.50;1.80;;;;;;;14.60;67.26;101061.03;6189233;28;20230;-50
2021/08/27 03:53:38;;;;;;;3.70;2.47;;;;;;;14.40;68.02;101057.91;6210814;28;20233;-49
2021/08/27 03:57:02;;;;;;;4.60;2.00;;;;;;;14.40;67.92;101053.53;6189878;28;20259;-50
2021/08/27 04:00:26;;;;;;;6.00;2.57;;;;;;;14.50;67.45;101057.72;6200933;28;20229;-50
2021/08/27 04:03:46;;;;;;;3.97;2.00;;;;;;;14.74;66.94;101056.31;6192525;28;20233;-51
2021/08/27 04:07:09;;;;;;;5.07;1.80;;;;;;;14.63;67.18;101057.47;6186301;28;20241;-52
2021/08/27 04:10:29;;;;;;;5.57;2.10;;;;;;;14.73;66.88;101049.38;6193103;28;20238;-49
2021/08/27 04:13:50;;;;;;;3.60;2.60;;;;;;;14.52;67.69;101058.53;6185319;28;20250;-49
2021/08/27 04:17:13;;;;;;;3.70;2.17;;;;;;;14.46;68.24;101053.44;6195890;28;20259;-52
2021/08/27 04:20:35;;;;;;;6.30;2.77;;;;;;;14.60;67.87;101047.91;6160463;28;20223;-49
2021/08/27 04:23:57;;;;;;;2.87;2.47;;;;;;;14.53;68.09;101049.75;6171997;28;20246;-48
2021/08/27 04:27:18;;;;;;;4.50;2.23;;;;;;;14.54;68.08;101054.13;6175582;28;20254;-52
2021/08/27 04:30:40;;;;;;;4.73;2.80;;;;;;;14.66;67.96;101039.06;6192431;28;20229;-49
2021/08/27 04:34:00;;;;;;;4.20;2.57;;;;;;;14.67;67.74;101041.63;6193321;28;20233;-48
2021/08/27 04:37:21;;;;;;;6.43;3.03;;;;;;;14.70;67.75;101041.56;6178833;28;20241;-49
2021/08/27 04:40:43;;;;;;;3.57;2.97;;;;;;;14.54;68.61;101050.66;6193931;28;20598;-53
2021/08/27 04:44:05;;;;;;;4.07;2.97;;;;;;;14.50;69.59;101048.97;6191393;28;20337;-50
2021/08/27 04:47:26;;;;;;;6.30;2.77;;;;;;;14.77;69.21;101048.41;6196175;28;20222;-53
2021/08/27 04:50:47;;;;;;;5.67;3.00;;;;;;;14.57;69.27;101037.50;6187583;28;20592;-52
2021/08/27 04:54:08;;;;;;;4.63;2.23;;;;;;;14.64;69.84;101046.09;6187506;28;20230;-49
2021/08/27 04:57:31;;;;;;;8.03;2.13;;;;;;;14.68;69.78;101038.13;6181475;28;20655;-52
2021/08/27 05:00:52;;;;;;;4.20;2.50;;;;;;;14.65;70.21;101042.56;6196361;28;20222;-50
2021/08/27 05:04:13;;;;;;;2.93;1.83;;;;;;;14.57;70.98;101050.59;6188682;28;20226;-47
2021/08/27 05:07:34;;;;;;;3.47;2.20;;;;;;;14.65;71.08;101048.66;6195554;28;20634;-49
2021/08/27 05:10:55;;;;;;;4.47;2.17;;;;;;;14.81;70.57;101050.94;6192043;28;20622;-54
2021/08/27 05:14:18;;;;;;;2.63;1.83;;;;;;;14.92;70.67;101051.56;6196668;28;20225;-51
2021/08/27 05:17:40;;;;;;;3.73;2.37;;;;;;;15.07;70.01;101056.44;6196243;28;20324;-53
2021/08/27 05:21:01;;;;;;;3.60;1.90;;;;;;;14.96;70.76;101058.44;6180690;28;20288;-50
2021/08/27 05:24:22;;;;;;;3.33;1.97;;;;;;;14.82;71.56;101060.53;6205815;28;20220;-48
2021/08/27 05:27:44;;;;;;;4.17;2.13;;;;;;;15.03;71.22;101060.03;6194721;28;20226;-50
2021/08/27 05:31:06;;;;;;;4.00;2.10;;;;;;;14.91;71.89;101060.34;6199353;28;20618;-52
2021/08/27 05:34:27;;;;;;;2.23;1.80;;;;;;;15.10;71.50;101061.63;6206733;28;20663;-52
2021/08/27 05:37:48;;;;;;;5.60;2.30;;;;;;;15.12;71.56;101054.56;6203921;28;20241;-50
2021/08/27 05:41:09;;;;;;;2.47;1.77;;;;;;;15.25;71.24;101055.13;6194709;28;20242;-51
2021/08/27 05:44:30;;;;;;;4.37;1.80;;;;;;;15.44;70.86;101060.78;6197207;28;20233;-51
2021/08/27 05:47:52;;;;;;;2.17;1.97;;;;;;;15.47;70.92;101060.72;6204070;28;20309;-51
2021/08/27 05:51:13;;;;;;;3.13;2.17;;;;;;;15.44;71.34;101066.03;6188714;28;20234;-49
2021/08/27 05:54:34;;;;;;;5.83;2.60;;;;;;;15.37;71.89;101069.69;6202623;28;20225;-50
2021/08/27 05:57:56;;;;;;;5.73;2.63;;;;;;;15.62;71.52;101066.47;6187572;28;20501;-51
2021/08/27 06:01:17;;;;;;;2.63;1.50;;;;;;;15.31;72.11;101070.72;6176896;28;20230;-48
2021/08/27 06:04:39;;;;;;;1.83;1.33;;;;;;;15.51;71.81;101072.00;6187833;28;20246;-49
2021/08/27 06:08:00;;;;;;;2.90;2.00;;;;;;;15.41;71.74;101070.47;6181831;28;20223;-50
2021/08/27 06:11:21;;;;;;;3.73;1.90;;;;;;;15.35;72.72;101074.13;6199539;28;20233;-49
2021/08/27 06:14:41;;;;;;;2.70;1.70;;;;;;;15.32;72.24;101074.22;6198671;28;20241;-52
2021/08/27 06:18:02;;;;;;;2.47;1.93;;;;;;;15.25;73.21;101080.50;6185040;28;20237;-55
2021/08/27 06:21:25;;;;;;;4.07;2.77;;;;;;;15.37;73.38;101069.69;6180946;28;20222;-49
2021/08/27 06:24:46;;;;;;;2.23;1.43;;;;;;;15.28;73.97;101080.44;6197565;28;20241;-53
2021/08/27 06:28:07;;;;;;;3.73;1.80;;;;;;;15.48;73.53;101085.19;6202372;28;20260;-53
2021/08/27 06:31:28;;;;;;;3.83;1.57;;;;;;;15.45;73.85;101078.25;6206879;28;20233;-50
2021/08/27 06:34:49;;;;;;;2.23;1.60;;;;;;;15.59;73.64;101084.94;6192347;28;20230;-51
2021/08/27 06:38:22;;;;;;;2.87;1.67;;;;;;;15.65;73.97;101090.03;6185195;28;20229;-54
2021/08/27 06:41:43;;;;;;;2.60;1.40;;;;;;;15.63;74.09;101091.81;6191475;28;20245;-53
2021/08/27 06:45:05;;;;;;;2.70;1.17;;;;;;;15.58;75.25;101091.06;6204486;28;20261;-48
2021/08/27 06:48:26;;;;;;;1.40;1.30;;;;;;;15.55;74.97;101092.00;6189373;28;20230;-51
2021/08/27 06:51:47;;;;;;;1.90;1.60;;;;;;;15.78;74.48;101088.84;6186506;28;20593;-54
2021/08/27 06:55:11;;;;;;;2.63;2.20;;;;;;;15.75;74.12;101099.41;6170333;28;20235;-50
2021/08/27 06:58:32;;;;;;;2.07;1.30;;;;;;;15.56;75.17;101101.59;6200482;28;20261;-53
2021/08/27 07:01:53;;;;;;;2.47;1.30;;;;;;;15.51;75.99;101099.09;6196544;28;20237;-52
2021/08/27 07:05:15;;;;;;;2.53;1.67;;;;;;;15.77;75.46;101099.38;6201900;28;20344;-49
2021/08/27 07:08:36;;;;;;;2.30;1.67;;;;;;;15.71;75.75;101100.34;6188436;28;20254;-47
2021/08/27 07:11:58;;;;;;;1.80;1.40;;;;;;;15.77;76.25;101099.38;6192013;28;20244;-52
2021/08/27 07:15:20;;;;;;;2.03;1.50;;;;;;;16.04;75.39;101103.03;6199076;28;20229;-50
2021/08/27 07:18:41;;;;;;;4.93;1.93;;;;;;;16.10;74.90;101113.34;6199660;28;20321;-54
2021/08/27 07:22:02;;;;;;;2.03;1.57;;;;;;;16.14;74.41;101107.97;6198702;28;20253;-50
2021/08/27 07:25:23;;;;;;;2.63;1.93;;;;;;;16.33;74.62;101099.59;6201791;28;20221;-52
2021/08/27 07:28:46;;;;;;;2.03;1.77;;;;;;;16.35;74.47;101108.28;6199301;28;20252;-48
2021/08/27 07:32:11;;;;;;;2.23;1.70;;;;;;;16.49;73.48;101106.09;6189738;28;20237;-50
2021/08/27 07:35:32;;;;;;;3.13;1.83;;;;;;;16.26;74.75;101114.63;6190490;28;20232;-50
2021/08/27 07:38:53;;;;;;;1.87;1.73;;;;;;;16.29;75.39;101114.56;6194775;28;20648;-50
2021/08/27 07:42:14;;;;;;;1.83;1.47;;;;;;;16.51;74.20;101116.59;6185713;28;20234;-50
2021/08/27 07:45:36;;;;;;;1.97;1.70;;;;;;;16.60;73.54;101116.31;6191795;28;20548;-47
2021/08/27 07:48:57;;;;;;;2.87;2.00;;;;;;;16.60;73.78;101118.94;6181772;28;20317;-49
2021/08/27 07:52:18;;;;;;;1.97;1.77;;;;;;;16.62;73.74;101125.03;6196785;28;20237;-52
2021/08/27 07:55:40;;;;;;;2.50;1.30;;;;;;;16.57;74.73;101126.91;6191975;28;20225;-52
2021/08/27 07:59:01;;;;;;;1.80;1.33;;;;;;;16.55;74.47;101128.72;6185040;28;20229;-52
2021/08/27 08:02:23;;;;;;;2.87;1.80;;;;;;;16.43;74.74;101131.72;6191035;28;20229;-50
2021/08/27 08:05:44;;;;;;;2.17;1.97;;;;;;;16.78;74.30;101142.97;6203231;28;20694;-49
2021/08/27 08:09:05;;;;;;;3.97;1.40;;;;;;;16.91;74.19;101131.22;6189928;28;20564;-51
2021/08/27 08:12:26;;;;;;;2.90;1.47;;;;;;;17.25;73.34;101128.41;6175807;28;20245;-49
2021/08/27 08:15:47;;;;;;;3.20;1.40;;;;;;;17.61;71.67;101127.25;6182725;28;20222;-50
2021/08/27 08:19:11;;;;;;;1.73;1.30;;;;;;;17.98;70.29;101141.84;6196049;28;20234;-52
2021/08/27 08:22:32;;;;;;;2.57;1.30;;;;;;;18.15;69.47;101151.78;6196425;28;20237;-50
2021/08/27 08:25:53;;;;;;;2.45;2.25;;;;;;;18.43;68.74;101146.38;6195581;28;20871;-48
2021/08/27 08:29:14;;;;;;;2.13;1.30;;;;;;;18.18;69.25;101144.59;6203019;28;20340;-49
2021/08/27 08:32:35;;;;;;;1.40;1.30;;;;;;;18.17;69.23;101152.59;6205037;28;20225;-51
2021/08/27 08:35:57;;;;;;;1.40;1.30;;;;;;;17.76;70.53;101149.56;6183978;28;20227;-53
2021/08/27 08:39:18;;;;;;;1.87;1.60;;;;;;;17.63;71.23;101149.13;6186296;28;20234;-48
2021/08/27 08:42:40;;;;;;;3.10;2.23;;;;;;;17.64;71.60;101162.25;6192986;28;20654;-51
2021/08/27 08:46:01;;;;;;;2.40;1.83;;;;;;;17.55;72.17;101156.44;6180802;28;20238;-49
2021/08/27 08:49:27;;;;;;;2.67;1.43;;;;;;;17.60;72.00;101158.00;6194932;28;20509;-51
2021/08/27 08:52:50;;;;;;;2.00;1.80;;;;;;;17.76;71.57;101153.06;6192708;28;20226;-52
2021/08/27 08:56:12;;;;;;;3.50;2.03;;;;;;;18.22;69.69;101158.53;6189328;28;20323;-51
2021/08/27 08:59:35;;;;;;;2.30;1.60;;;;;;;18.30;69.40;101157.38;6196513;28;20496;-48
2021/08/27 09:02:56;;;;;;;3.50;2.10;;;;;;;18.68;68.18;101163.00;6192084;28;20234;-48
2021/08/27 09:06:17;;;;;;;9.37;3.10;;;;;;;18.75;67.71;101165.44;6192903;28;20254;-53
2021/08/27 09:09:40;;;;;;;1.43;1.00;;;;;;;19.15;66.72;101156.84;6200418;28;20237;-53
2021/08/27 09:13:06;;;;;;;1.52;1.17;;;;;;;19.21;65.44;101163.66;6198188;28;20325;-51
2021/08/27 09:16:30;;;;;;;1.70;1.60;;;;;;;19.46;65.24;101160.91;6193812;28;20221;-50
2021/08/27 09:19:51;;;;;;;2.72;1.35;;;;;;;19.20;65.15;101167.25;6192968;28;20234;-49
2021/08/27 09:23:14;;;;;;;2.80;2.00;;;;;;;18.79;65.92;101167.88;6194050;28;20230;-49
2021/08/27 09:26:37;;;;;;;2.60;1.45;;;;;;;18.68;65.76;101165.63;6196629;28;20233;-52
2021/08/27 09:29:59;;;;;;;4.28;2.00;;;;;;;18.50;67.02;101174.25;6189374;28;20226;-51
2021/08/27 09:33:23;;;;;;;2.08;1.85;;;;;;;18.36;67.73;101168.59;6185442;28;20218;-51
2021/08/27 09:36:56;;;;;;;2.27;1.50;;;;;;;19.28;64.99;101173.91;6187869;28;20242;-49
2021/08/27 09:40:19;;;;;;;1.45;1.27;;;;;;;19.72;63.90;101173.09;6190151;28;20225;-52
2021/08/27 09:43:48;;;;;;;2.83;1.30;;;;;;;19.40;63.44;101174.34;6193870;28;20222;-51
2021/08/27 09:47:09;;;;;;;1.38;1.10;;;;;;;20.26;61.95;101179.59;6181535;28;20238;-53
2021/08/27 09:50:32;;;;;;;5.82;2.17;;;;;;;20.39;60.94;101179.03;6191253;28;20619;-54
2021/08/27 09:53:53;;;;;;;1.35;0.85;;;;;;;20.34;59.49;101176.59;6190344;28;20225;-53
2021/08/27 09:57:15;;;;;;;1.02;0.95;;;;;;;20.08;60.20;101183.00;6187837;28;20233;-48
2021/08/27 10:00:39;;;;;;;1.75;0.90;;;;;;;19.84;60.49;101172.56;6207501;28;20711;-51
2021/08/27 10:04:05;;;;;;;1.20;1.10;;;;;;;19.60;61.47;101178.81;6196791;28;20226;-50
2021/08/27 10:07:27;;;;;;;1.80;1.00;;;;;;;19.04;62.97;101186.31;6208890;28;20232;-49
2021/08/27 10:10:50;;;;;;;2.08;1.75;;;;;;;18.82;63.93;101191.53;6184343;28;20238;-49
2021/08/27 10:14:13;;;;;;;2.55;1.13;;;;;;;18.76;63.98;101186.47;6186745;28;20237;-55
2021/08/27 10:17:37;;;;;;;0.70;0.70;;;;;;;18.65;64.06;101200.06;6194543;28;20237;-53
2021/08/27 10:20:58;;;;;;;3.13;1.33;;;;;;;18.07;67.68;101213.53;6194691;28;20309;-52
2021/08/27 10:24:19;;;;;;;4.78;1.30;;;;;;;18.11;69.15;101214.28;6198635;28;20226;-49
2021/08/27 10:27:47;;;;;;;3.15;2.00;;;;;;;18.47;67.49;101201.56;6193965;28;20651;-50
2021/08/27 10:31:08;;;;;;;3.55;1.73;;;;;;;19.23;66.75;101201.44;6193352;28;20222;-48
2021/08/27 10:34:42;;;;;;;1.60;1.35;;;;;;;20.53;63.29;101203.09;6184477;28;20506;-52
2021/08/27 10:38:03;;;;;;;1.75;1.40;;;;;;;20.25;62.39;101199.00;6197910;28;20237;-47
2021/08/27 10:41:28;;;;;;;2.97;1.80;;;;;;;20.56;62.36;101202.94;6203407;28;20638;-52
2021/08/27 10:44:51;;;;;;;3.33;1.20;;;;;;;20.69;61.46;101207.75;6197339;28;20771;-51
2021/08/27 10:48:14;;;;;;;1.77;1.10;;;;;;;20.16;62.09;101209.13;6196233;28;20238;-48
2021/08/27 10:51:37;;;;;;;3.15;1.55;;;;;;;20.23;61.83;101200.00;6201282;28;20234;-49
2021/08/27 10:55:14;;;;;;;1.08;0.93;;;;;;;21.49;59.19;101204.03;6190637;28;20222;-51
2021/08/27 10:58:41;;;;;;;2.50;1.77;;;;;;;21.56;57.97;101208.09;6185018;28;20225;-49
2021/08/27 11:02:04;;;;;;;2.35;1.15;;;;;;;22.12;56.79;101198.22;6198066;28;20241;-48
2021/08/27 11:05:43;;;;;;;0.85;0.85;;;;;;;21.86;56.86;101205.69;6191838;28;20226;-52
2021/08/27 11:09:23;;;;;;;3.03;1.60;;;;;;;21.15;58.46;101209.13;6189785;28;20250;-54
2021/08/27 11:12:58;;;;;;;1.13;1.02;;;;;;;20.40;57.36;101213.34;6182100;28;20534;-52
2021/08/27 11:16:27;;;;;;;7.18;3.63;;;;;;;20.81;57.44;101223.06;6189517;28;20221;-50
2021/08/27 11:19:49;;;;;;;3.30;1.88;;;;;;;20.77;58.60;101224.13;6192586;28;20233;-54
2021/08/27 11:23:11;;;;;;;1.45;1.35;;;;;;;20.40;59.16;101215.16;6189405;28;20230;-54
2021/08/27 11:26:42;;;;;;;1.20;0.85;;;;;;;20.96;55.04;101222.34;6192848;28;20234;-51
2021/08/27 11:30:31;;;;;;;0.73;0.70;;;;;;;22.16;52.18;101221.84;6192508;28;20561;-54
2021/08/27 11:33:53;;;;;;;1.30;1.20;;;;;;;22.87;50.63;101228.78;6184374;28;20222;-49
2021/08/27 11:37:15;;;;;;;1.88;1.00;;;;;;;22.13;52.17;101219.34;6199704;28;20237;-49
2021/08/27 11:40:37;;;;;;;1.00;0.85;;;;;;;22.75;51.00;101224.13;6196538;28;20587;-54
2021/08/27 11:44:20;;;;;;;1.30;0.80;;;;;;;24.10;47.96;101227.19;6185987;28;20237;-53
2021/08/27 11:47:42;;;;;;;0.90;0.60;;;;;;;28.32;37.11;101227.94;6190839;28;20615;-54
2021/08/27 11:51:06;;;;;;;2.80;1.00;;;;;;;29.57;35.81;101224.22;6196908;28;20229;-53
2021/08/27 11:54:27;;;;;;;8.30;2.45;;;;;;;30.30;33.33;101216.31;6202670;28;20229;-49
2021/08/27 11:57:49;;;;;;;0.57;0.57;;;;;;;28.93;34.14;101233.00;6189909;28;20225;-50
2021/08/27 12:01:25;;;;;;;1.20;0.80;;;;;;;24.96;41.84;101245.91;6182829;28;20231;-50
2021/08/27 12:04:55;;;;;;;0.82;0.80;;;;;;;22.84;46.01;101247.53;6184829;28;20229;-49
2021/08/27 12:08:16;;;;;;;1.48;0.93;;;;;;;21.67;49.49;101255.25;6185408;28;20233;-48
2021/08/27 12:11:40;;;;;;;1.75;0.75;;;;;;;20.95;53.35;101262.13;6178192;28;20230;-54
2021/08/27 12:15:03;;;;;;;1.60;1.50;;;;;;;20.49;55.55;101257.06;6169006;28;20230;-49
2021/08/27 12:18:37;;;;;;;0.85;0.82;;;;;;;20.82;55.43;101256.50;6187051;28;20427;-55
2021/08/27 12:22:02;;;;;;;2.33;1.52;;;;;;;21.23;54.73;101256.44;6182626;28;20226;-55
2021/08/27 12:25:27;;;;;;;2.58;1.20;;;;;;;21.36;54.58;101257.53;6180104;28;20257;-50
2021/08/27 12:28:48;;;;;;;2.47;1.73;;;;;;;21.20;55.39;101262.69;6190625;28;20245;-54
2021/08/27 12:32:17;;;;;;;3.65;2.05;;;;;;;21.60;54.99;101260.88;6184081;28;20260;-53
2021/08/27 12:35:40;;;;;;;1.52;1.30;;;;;;;21.09;55.36;101264.97;6180228;28;20233;-51
2021/08/27 12:39:01;;;;;;;2.15;1.52;;;;;;;20.31;57.08;101268.44;6186133;28;20611;-49
2021/08/27 12:42:22;;;;;;;1.67;1.20;;;;;;;20.83;56.25;101274.13;6185315;28;20233;-51
2021/08/27 12:45:46;;;;;;;1.30;1.20;;;;;;;21.02;55.74;101264.41;6181154;28;20226;-53
2021/08/27 12:49:14;;;;;;;1.50;1.20;;;;;;;21.70;53.52;101266.56;6179013;28;20321;-53
2021/08/27 12:52:37;;;;;;;1.02;0.80;;;;;;;27.34;40.81;101262.06;6186146;28;20236;-51
2021/08/27 12:56:13;;;;;;;2.78;1.00;;;;;;;29.23;35.59;101259.16;6185851;28;20285;-51
2021/08/27 12:59:34;;;;;;;1.20;0.80;;;;;;;26.69;40.86;101258.59;6177040;28;20238;-54
2021/08/27 13:03:08;;;;;;;1.92;0.70;;;;;;;25.95;42.15;101262.78;6176606;28;20234;-50
2021/08/27 13:06:33;;;;;;;1.17;1.00;;;;;;;25.07;43.59;101263.91;6176082;28;20225;-50
2021/08/27 13:10:10;;;;;;;0.52;0.52;;;;;;;22.57;47.17;101276.41;6176029;28;20250;-54
2021/08/27 13:13:32;;;;;;;3.28;0.80;;;;;;;22.32;49.26;101269.72;6166493;28;20637;-49
2021/08/27 13:16:55;;;;;;;1.52;1.17;;;;;;;26.31;40.87;101264.78;6181176;28;20234;-51
2021/08/27 13:20:23;;;;;;;3.40;2.95;;;;;;;24.22;43.67;101267.34;6184106;28;20249;-51
2021/08/27 13:23:45;;;;;;;1.20;1.10;;;;;;;24.04;43.85;101264.81;6177455;28;20233;-54
2021/08/27 13:27:07;;;;;;;1.55;0.70;;;;;;;22.74;46.42;101270.19;6182899;28;20556;-52
2021/08/27 13:30:28;;;;;;;1.77;1.00;;;;;;;22.26;47.80;101271.84;6179879;28;20229;-52
2021/08/27 13:33:49;;;;;;;1.67;1.33;;;;;;;22.61;47.45;101278.81;6177753;28;20542;-51
2021/08/27 13:37:10;;;;;;;1.08;0.65;;;;;;;22.68;47.46;101289.09;6166476;28;20748;-53
2021/08/27 13:40:32;;;;;;;1.00;1.00;;;;;;;22.77;46.67;101293.94;6170429;28;20233;-50
2021/08/27 13:43:54;;;;;;;0.80;0.70;;;;;;;24.18;43.16;101285.28;6173299;28;20233;-53
2021/08/27 13:47:15;;;;;;;0.60;0.60;;;;;;;24.46;41.88;101292.47;6170968;28;20782;-51
2021/08/27 13:50:36;;;;;;;2.42;0.73;;;;;;;24.22;43.40;101286.81;6173157;28;20328;-51
2021/08/27 13:54:03;;;;;;;0.80;0.70;;;;;;;24.04;43.12;101298.50;6163166;28;20261;-50
2021/08/27 13:57:23;;;;;;;1.02;0.90;;;;;;;23.68;44.37;101292.53;6171182;28;20524;-50
2021/08/27 14:00:46;;;;;;;1.63;1.00;;;;;;;23.63;44.60;101294.59;6173700;28;20233;-52
2021/08/27 14:04:08;;;;;;;2.13;0.68;;;;;;;22.66;47.08;101304.25;6137132;28;20222;-51
2021/08/27 14:07:30;;;;;;;1.35;0.60;;;;;;;22.10;48.58;101317.66;6167298;28;20253;-52
2021/08/27 14:10:52;;;;;;;1.20;1.17;;;;;;;22.47;47.98;101310.53;6187729;28;20238;-51
2021/08/27 14:14:13;;;;;;;2.60;0.80;;;;;;;22.12;48.38;101310.47;6183517;28;20226;-50
2021/08/27 14:17:35;;;;;;;5.00;2.92;;;;;;;22.26;48.74;101314.28;6180635;28;20230;-53
2021/08/27 14:20:56;;;;;;;1.92;1.42;;;;;;;21.69;49.57;101317.84;6188009;28;20230;-51
2021/08/27 14:24:17;;;;;;;2.50;0.63;;;;;;;21.32;49.51;101324.00;6194925;28;20225;-49
2021/08/27 14:27:38;;;;;;;1.30;1.20;;;;;;;21.61;49.67;101330.63;6192357;28;20267;-51
2021/08/27 14:30:59;;;;;;;2.60;1.73;;;;;;;22.14;48.09;101331.59;6191957;28;20249;-49
2021/08/27 14:34:22;;;;;;;5.85;2.58;;;;;;;21.97;47.24;101332.44;6186181;28;20257;-51
2021/08/27 14:37:43;;;;;;;0.95;0.82;;;;;;;22.23;47.48;101329.34;6176619;28;20799;-50
2021/08/27 14:41:04;;;;;;;1.85;0.88;;;;;;;23.72;44.30;101320.66;6183214;28;20225;-49
2021/08/27 14:44:25;;;;;;;2.42;1.35;;;;;;;23.87;43.31;101320.78;6184539;28;20242;-49
2021/08/27 14:47:45;;;;;;;1.60;1.05;;;;;;;23.80;43.10;101327.38;6182936;28;20253;-52
2021/08/27 14:51:08;;;;;;;2.80;1.92;;;;;;;23.98;42.75;101324.53;6179437;28;20234;-53
2021/08/27 14:54:29;;;;;;;1.17;1.02;;;;;;;24.12;42.65;101321.09;6188289;28;20221;-51
2021/08/27 14:57:50;;;;;;;1.88;1.13;;;;;;;24.25;42.21;101333.66;6181455;28;20662;-55
2021/08/27 15:01:11;;;;;;;1.45;0.95;;;;;;;24.32;40.98;101327.88;6186417;28;20235;-52
2021/08/27 15:04:32;;;;;;;6.50;5.82;;;;;;;24.62;40.63;101318.19;6185564;28;20229;-51
2021/08/27 15:07:56;;;;;;;4.60;2.38;;;;;;;24.79;39.49;101325.16;6189330;28;20257;-52
2021/08/27 15:11:17;;;;;;;1.00;0.75;;;;;;;24.87;38.76;101329.09;6186647;28;20245;-54
2021/08/27 15:14:38;;;;;;;0.70;0.60;;;;;;;25.05;38.38;101326.25;6187130;28;20234;-48
2021/08/27 15:18:00;;;;;;;1.13;0.63;;;;;;;25.24;38.51;101337.50;6187392;28;20234;-49
2021/08/27 15:21:21;;;;;;;0.70;0.70;;;;;;;25.65;37.40;101341.13;6189226;28;20484;-52
2021/08/27 15:24:43;;;;;;;2.28;0.70;;;;;;;25.05;37.39;101342.25;6194834;28;20589;-50
2021/08/27 15:28:04;;;;;;;2.45;1.65;;;;;;;24.20;39.30;101346.41;6190575;28;20257;-51
2021/08/27 15:31:25;;;;;;;1.45;1.33;;;;;;;23.93;40.00;101347.03;6186293;28;20317;-52
2021/08/27 15:34:46;;;;;;;2.50;0.60;;;;;;;23.48;39.72;101356.59;6194937;28;20233;-52
2021/08/27 15:38:08;;;;;;;1.50;0.50;;;;;;;23.14;40.71;101353.94;6189256;28;20261;-51
2021/08/27 15:41:30;;;;;;;0.60;0.40;;;;;;;23.72;38.93;101355.22;6187604;28;20237;-53
2021/08/27 15:44:51;;;;;;;0.73;0.32;;;;;;;23.66;39.38;101360.03;6185903;28;20229;-51